Terminal Aerodrome Forecast
Issued by NWS

Current Version | Previous Version | Graphics & Text | Print | Product List | Glossary On
Versions: 1 2 3 4 5 6 7 8 9 10 11 12 13
000
FTUS41 KPBZ 222329
TAFMGW
TAF
KMGW 222329Z 2300/2324 23008KT P6SM OVC040
     FM230300 22005KT P6SM BKN025
     FM230500 21004KT P6SM OVC015
     FM231500 22008KT P6SM VCSH BKN020
     FM232100 24008KT P6SM BKN030=

USA.gov is the U.S. government's official web portal to all federal, state and local government web resources and services.